Cromwell, New Zealand
Current Conditions -  °F | °C
As of 8:30 PM on Tuesday 27 Jan 2015 (Local Time) from NZCH Reporting Station
Overcast Overcast  
Wind Chill: 64°   Ceiling: 1600
Heat Index: 64°   Visibility: 6mi
Dew Point: 59°   Wind: 9mph
Humidity: 83%   Direction: 80°E
Pressure: 29.97"   Gusts: NA
Location:  45.04°S, 169.2°E
Report Text: NZCH 270830Z AUTO 08008KT 050V110 9999 BKN016/// OVC030///18/15 Q1015 NOSIG
Loading
Personal Weather Stations






























Interactive Weather Map New forecast layout! Learn more

10-Day Weather Forecast

Advertisements
Track Severe Weather on mobile